sensor_id;sensor_type;location;lat;lon;timestamp;pressure;altitude;pressure_sealevel;temperature
79756;BMP280;69239;50.678;12.280;2024-01-27T00:01:31;98904.41;;;4.35
79756;BMP280;69239;50.678;12.280;2024-01-27T00:03:57;98906.22;;;4.35
79756;BMP280;69239;50.678;12.280;2024-01-27T00:06:22;98900.47;;;4.33
79756;BMP280;69239;50.678;12.280;2024-01-27T00:08:47;98904.31;;;4.30
79756;BMP280;69239;50.678;12.280;2024-01-27T00:11:13;98906.69;;;4.32
79756;BMP280;69239;50.678;12.280;2024-01-27T00:13:38;98910.31;;;4.31
79756;BMP280;69239;50.678;12.280;2024-01-27T00:16:04;98907.91;;;4.29
79756;BMP280;69239;50.678;12.280;2024-01-27T00:18:29;98908.16;;;4.28
79756;BMP280;69239;50.678;12.280;2024-01-27T00:20:54;98906.44;;;4.21
79756;BMP280;69239;50.678;12.280;2024-01-27T00:23:20;98917.22;;;4.25
79756;BMP280;69239;50.678;12.280;2024-01-27T00:25:45;98928.44;;;4.25
79756;BMP280;69239;50.678;12.280;2024-01-27T00:28:10;98926.28;;;4.22
79756;BMP280;69239;50.678;12.280;2024-01-27T00:30:36;98924.13;;;4.19
79756;BMP280;69239;50.678;12.280;2024-01-27T00:33:01;98921.75;;;4.18
79756;BMP280;69239;50.678;12.280;2024-01-27T00:35:27;98921.44;;;4.14
79756;BMP280;69239;50.678;12.280;2024-01-27T00:37:52;98923.47;;;4.12
79756;BMP280;69239;50.678;12.280;2024-01-27T00:40:18;98921.44;;;4.14
79756;BMP280;69239;50.678;12.280;2024-01-27T00:42:43;98927.91;;;4.12
79756;BMP280;69239;50.678;12.280;2024-01-27T00:45:09;98919.72;;;4.08
79756;BMP280;69239;50.678;12.280;2024-01-27T00:47:34;98926.09;;;4.12
79756;BMP280;69239;50.678;12.280;2024-01-27T00:49:59;98930.28;;;4.13
79756;BMP280;69239;50.678;12.280;2024-01-27T00:52:25;98930.03;;;4.15
79756;BMP280;69239;50.678;12.280;2024-01-27T00:54:50;98931.84;;;4.14
79756;BMP280;69239;50.678;12.280;2024-01-27T00:57:16;98934.47;;;4.14
79756;BMP280;69239;50.678;12.280;2024-01-27T00:59:41;98922.34;;;4.08
79756;BMP280;69239;50.678;12.280;2024-01-27T01:02:07;98936.75;;;4.11
79756;BMP280;69239;50.678;12.280;2024-01-27T01:04:32;98929.34;;;4.08
79756;BMP280;69239;50.678;12.280;2024-01-27T01:06:58;98923.03;;;4.04
79756;BMP280;69239;50.678;12.280;2024-01-27T01:09:23;98930.59;;;4.05
79756;BMP280;69239;50.678;12.280;2024-01-27T01:11:49;98928.78;;;4.06
79756;BMP280;69239;50.678;12.280;2024-01-27T01:14:14;98939.78;;;4.08
79756;BMP280;69239;50.678;12.280;2024-01-27T01:16:40;98953.19;;;4.11
79756;BMP280;69239;50.678;12.280;2024-01-27T01:19:06;98955.22;;;4.09
79756;BMP280;69239;50.678;12.280;2024-01-27T01:21:31;98954.44;;;4.09
79756;BMP280;69239;50.678;12.280;2024-01-27T01:23:57;98951.47;;;4.05
79756;BMP280;69239;50.678;12.280;2024-01-27T01:26:23;98962.13;;;4.04
79756;BMP280;69239;50.678;12.280;2024-01-27T01:28:49;98960.53;;;4.03
79756;BMP280;69239;50.678;12.280;2024-01-27T01:31:15;98971.16;;;4.01
79756;BMP280;69239;50.678;12.280;2024-01-27T01:33:40;98962.78;;;3.99
79756;BMP280;69239;50.678;12.280;2024-01-27T01:36:05;98975.00;;;3.99
79756;BMP280;69239;50.678;12.280;2024-01-27T01:38:31;98969.50;;;3.95
79756;BMP280;69239;50.678;12.280;2024-01-27T01:40:56;98981.94;;;3.93
79756;BMP280;69239;50.678;12.280;2024-01-27T01:43:22;98975.13;;;3.92
79756;BMP280;69239;50.678;12.280;2024-01-27T01:45:47;98980.22;;;3.87
79756;BMP280;69239;50.678;12.280;2024-01-27T01:48:12;98988.03;;;3.87
79756;BMP280;69239;50.678;12.280;2024-01-27T01:50:38;99002.88;;;3.86
79756;BMP280;69239;50.678;12.280;2024-01-27T01:53:04;98990.06;;;3.85
79756;BMP280;69239;50.678;12.280;2024-01-27T01:55:31;98992.66;;;3.85
79756;BMP280;69239;50.678;12.280;2024-01-27T01:57:56;98983.72;;;3.81
79756;BMP280;69239;50.678;12.280;2024-01-27T02:00:21;98992.53;;;3.80
79756;BMP280;69239;50.678;12.280;2024-01-27T02:02:47;98992.19;;;3.76
79756;BMP280;69239;50.678;12.280;2024-01-27T02:05:13;98996.88;;;3.74
79756;BMP280;69239;50.678;12.280;2024-01-27T02:07:39;98991.06;;;3.72
79756;BMP280;69239;50.678;12.280;2024-01-27T02:10:06;98989.56;;;3.64
79756;BMP280;69239;50.678;12.280;2024-01-27T02:12:32;98999.56;;;3.67
79756;BMP280;69239;50.678;12.280;2024-01-27T02:14:58;98999.66;;;3.61
79756;BMP280;69239;50.678;12.280;2024-01-27T02:17:23;99008.47;;;3.60
79756;BMP280;69239;50.678;12.280;2024-01-27T02:19:49;99007.69;;;3.59
79756;BMP280;69239;50.678;12.280;2024-01-27T02:22:15;99010.72;;;3.56
79756;BMP280;69239;50.678;12.280;2024-01-27T02:24:41;99012.75;;;3.54
79756;BMP280;69239;50.678;12.280;2024-01-27T02:27:06;99009.47;;;3.47
79756;BMP280;69239;50.678;12.280;2024-01-27T02:29:31;99007.88;;;3.46
79756;BMP280;69239;50.678;12.280;2024-01-27T02:31:57;99013.09;;;3.46
79756;BMP280;69239;50.678;12.280;2024-01-27T02:34:22;99019.50;;;3.44
79756;BMP280;69239;50.678;12.280;2024-01-27T02:36:47;99025.09;;;3.47
79756;BMP280;69239;50.678;12.280;2024-01-27T02:39:13;99023.50;;;3.46
79756;BMP280;69239;50.678;12.280;2024-01-27T02:41:38;99021.69;;;3.47
79756;BMP280;69239;50.678;12.280;2024-01-27T02:44:07;99023.50;;;3.46
79756;BMP280;69239;50.678;12.280;2024-01-27T02:46:32;99023.91;;;3.43
79756;BMP280;69239;50.678;12.280;2024-01-27T02:48:58;99020.28;;;3.44
79756;BMP280;69239;50.678;12.280;2024-01-27T02:51:23;99019.72;;;3.42
79756;BMP280;69239;50.678;12.280;2024-01-27T02:53:49;99018.38;;;3.40
79756;BMP280;69239;50.678;12.280;2024-01-27T02:56:16;99022.31;;;3.42
79756;BMP280;69239;50.678;12.280;2024-01-27T02:58:41;99015.97;;;3.38
79756;BMP280;69239;50.678;12.280;2024-01-27T03:01:07;99004.41;;;3.34
79756;BMP280;69239;50.678;12.280;2024-01-27T03:03:33;99008.81;;;3.33
79756;BMP280;69239;50.678;12.280;2024-01-27T03:05:59;99018.44;;;3.33
79756;BMP280;69239;50.678;12.280;2024-01-27T03:08:24;99026.09;;;3.28
79756;BMP280;69239;50.678;12.280;2024-01-27T03:10:50;99024.16;;;3.23
79756;BMP280;69239;50.678;12.280;2024-01-27T03:13:15;99023.38;;;3.23
79756;BMP280;69239;50.678;12.280;2024-01-27T03:15:41;99025.41;;;3.21
79756;BMP280;69239;50.678;12.280;2024-01-27T03:18:08;99031.06;;;3.18
79756;BMP280;69239;50.678;12.280;2024-01-27T03:20:33;99023.09;;;3.13
79756;BMP280;69239;50.678;12.280;2024-01-27T03:22:59;99024.69;;;3.14
79756;BMP280;69239;50.678;12.280;2024-01-27T03:25:24;99031.91;;;3.12
79756;BMP280;69239;50.678;12.280;2024-01-27T03:27:51;99021.91;;;3.08
79756;BMP280;69239;50.678;12.280;2024-01-27T03:30:17;99020.00;;;3.04
79756;BMP280;69239;50.678;12.280;2024-01-27T03:32:42;99022.38;;;3.05
79756;BMP280;69239;50.678;12.280;2024-01-27T03:35:07;99031.19;;;3.04
79756;BMP280;69239;50.678;12.280;2024-01-27T03:37:33;99037.97;;;3.05
79756;BMP280;69239;50.678;12.280;2024-01-27T03:39:59;99034.81;;;3.03
79756;BMP280;69239;50.678;12.280;2024-01-27T03:42:25;99029.00;;;3.01
79756;BMP280;69239;50.678;12.280;2024-01-27T03:44:50;99022.66;;;2.97
79756;BMP280;69239;50.678;12.280;2024-01-27T03:47:16;99038.38;;;3.02
79756;BMP280;69239;50.678;12.280;2024-01-27T03:49:42;99048.00;;;3.02
79756;BMP280;69239;50.678;12.280;2024-01-27T03:52:07;99037.81;;;3.00
79756;BMP280;69239;50.678;12.280;2024-01-27T03:54:32;99040.88;;;2.97
79756;BMP280;69239;50.678;12.280;2024-01-27T03:56:58;99047.09;;;2.96
79756;BMP280;69239;50.678;12.280;2024-01-27T03:59:23;99047.53;;;2.93
79756;BMP280;69239;50.678;12.280;2024-01-27T04:01:48;99051.13;;;2.92
79756;BMP280;69239;50.678;12.280;2024-01-27T04:04:14;99061.06;;;2.95
79756;BMP280;69239;50.678;12.280;2024-01-27T04:06:40;99060.97;;;2.90
79756;BMP280;69239;50.678;12.280;2024-01-27T04:09:06;99066.97;;;2.91
79756;BMP280;69239;50.678;12.280;2024-01-27T04:11:35;99071.56;;;2.89
79756;BMP280;69239;50.678;12.280;2024-01-27T04:14:02;99072.81;;;2.86
79756;BMP280;69239;50.678;12.280;2024-01-27T04:16:27;99070.63;;;2.83
79756;BMP280;69239;50.678;12.280;2024-01-27T04:18:53;99071.44;;;2.84
79756;BMP280;69239;50.678;12.280;2024-01-27T04:21:18;99071.03;;;2.80
79756;BMP280;69239;50.678;12.280;2024-01-27T04:23:43;99071.50;;;2.77
79756;BMP280;69239;50.678;12.280;2024-01-27T04:26:09;99069.50;;;2.72
79756;BMP280;69239;50.678;12.280;2024-01-27T04:28:35;99074.50;;;2.74
79756;BMP280;69239;50.678;12.280;2024-01-27T04:31:01;99070.16;;;2.68
79756;BMP280;69239;50.678;12.280;2024-01-27T04:33:26;99067.91;;;2.71
79756;BMP280;69239;50.678;12.280;2024-01-27T04:35:52;99059.97;;;2.66
79756;BMP280;69239;50.678;12.280;2024-01-27T04:38:17;99077.53;;;2.71
79756;BMP280;69239;50.678;12.280;2024-01-27T04:40:42;99074.53;;;2.67
79756;BMP280;69239;50.678;12.280;2024-01-27T04:43:08;99093.13;;;2.71
79756;BMP280;69239;50.678;12.280;2024-01-27T04:45:33;99092.97;;;2.66
79756;BMP280;69239;50.678;12.280;2024-01-27T04:47:58;99086.75;;;2.67
79756;BMP280;69239;50.678;12.280;2024-01-27T04:50:26;99087.75;;;2.66
79756;BMP280;69239;50.678;12.280;2024-01-27T04:52:51;99091.94;;;2.67
79756;BMP280;69239;50.678;12.280;2024-01-27T04:55:17;99089.97;;;2.69
79756;BMP280;69239;50.678;12.280;2024-01-27T04:57:42;99090.03;;;2.62
79756;BMP280;69239;50.678;12.280;2024-01-27T05:00:08;99099.75;;;2.67
79756;BMP280;69239;50.678;12.280;2024-01-27T05:02:40;99102.34;;;2.67
79756;BMP280;69239;50.678;12.280;2024-01-27T05:05:07;99093.44;;;2.63
79756;BMP280;69239;50.678;12.280;2024-01-27T05:07:32;99102.81;;;2.64
79756;BMP280;69239;50.678;12.280;2024-01-27T05:09:58;99092.84;;;2.61
79756;BMP280;69239;50.678;12.280;2024-01-27T05:12:23;99095.47;;;2.61
79756;BMP280;69239;50.678;12.280;2024-01-27T05:14:49;99096.66;;;2.58
79756;BMP280;69239;50.678;12.280;2024-01-27T05:17:14;99093.25;;;2.58
79756;BMP280;69239;50.678;12.280;2024-01-27T05:19:39;99095.28;;;2.56
79756;BMP280;69239;50.678;12.280;2024-01-27T05:22:05;99095.66;;;2.59
79756;BMP280;69239;50.678;12.280;2024-01-27T05:24:30;99090.09;;;2.56
79756;BMP280;69239;50.678;12.280;2024-01-27T05:26:56;99107.84;;;2.59
79756;BMP280;69239;50.678;12.280;2024-01-27T05:29:21;99107.28;;;2.57
79756;BMP280;69239;50.678;12.280;2024-01-27T05:31:47;99103.88;;;2.56
79756;BMP280;69239;50.678;12.280;2024-01-27T05:34:12;99108.66;;;2.59
79756;BMP280;69239;50.678;12.280;2024-01-27T05:36:37;99098.09;;;2.54
79756;BMP280;69239;50.678;12.280;2024-01-27T05:39:03;99107.69;;;2.53
79756;BMP280;69239;50.678;12.280;2024-01-27T05:41:32;99105.69;;;2.56
79756;BMP280;69239;50.678;12.280;2024-01-27T05:43:57;99110.28;;;2.53
79756;BMP280;69239;50.678;12.280;2024-01-27T05:46:24;99105.28;;;2.52
79756;BMP280;69239;50.678;12.280;2024-01-27T05:48:50;99104.50;;;2.51
79756;BMP280;69239;50.678;12.280;2024-01-27T05:51:18;99109.69;;;2.51
79756;BMP280;69239;50.678;12.280;2024-01-27T05:53:44;99111.50;;;2.51
79756;BMP280;69239;50.678;12.280;2024-01-27T05:56:09;99100.94;;;2.46
79756;BMP280;69239;50.678;12.280;2024-01-27T05:58:34;99103.34;;;2.47
79756;BMP280;69239;50.678;12.280;2024-01-27T06:01:00;99097.97;;;2.42
79756;BMP280;69239;50.678;12.280;2024-01-27T06:03:25;99110.53;;;2.45
79756;BMP280;69239;50.678;12.280;2024-01-27T06:05:51;99110.75;;;2.44
79756;BMP280;69239;50.678;12.280;2024-01-27T06:08:16;99122.53;;;2.46
79756;BMP280;69239;50.678;12.280;2024-01-27T06:10:43;99120.94;;;2.45
79756;BMP280;69239;50.678;12.280;2024-01-27T06:13:08;99119.16;;;2.39
79756;BMP280;69239;50.678;12.280;2024-01-27T06:15:34;99124.38;;;2.39
79756;BMP280;69239;50.678;12.280;2024-01-27T06:17:59;99120.78;;;2.40
79756;BMP280;69239;50.678;12.280;2024-01-27T06:20:24;99124.97;;;2.41
79756;BMP280;69239;50.678;12.280;2024-01-27T06:22:50;99121.56;;;2.41
79756;BMP280;69239;50.678;12.280;2024-01-27T06:25:17;99123.78;;;2.37
79756;BMP280;69239;50.678;12.280;2024-01-27T06:27:42;99117.44;;;2.33
79756;BMP280;69239;50.678;12.280;2024-01-27T06:30:08;99132.22;;;2.33
79756;BMP280;69239;50.678;12.280;2024-01-27T06:32:35;99127.81;;;2.33
79756;BMP280;69239;50.678;12.280;2024-01-27T06:35:00;99129.78;;;2.38
79756;BMP280;69239;50.678;12.280;2024-01-27T06:37:25;99134.59;;;2.34
79756;BMP280;69239;50.678;12.280;2024-01-27T06:39:51;99141.78;;;2.32
79756;BMP280;69239;50.678;12.280;2024-01-27T06:42:16;99151.22;;;2.33
79756;BMP280;69239;50.678;12.280;2024-01-27T06:44:41;99136.59;;;2.32
79756;BMP280;69239;50.678;12.280;2024-01-27T06:47:07;99158.59;;;2.36
79756;BMP280;69239;50.678;12.280;2024-01-27T06:49:32;99155.41;;;2.34
79756;BMP280;69239;50.678;12.280;2024-01-27T06:51:58;99162.56;;;2.39
79756;BMP280;69239;50.678;12.280;2024-01-27T06:54:24;99153.38;;;2.36
79756;BMP280;69239;50.678;12.280;2024-01-27T06:56:49;99172.16;;;2.38
79756;BMP280;69239;50.678;12.280;2024-01-27T06:59:14;99150.59;;;2.31
79756;BMP280;69239;50.678;12.280;2024-01-27T07:01:48;99151.78;;;2.35
79756;BMP280;69239;50.678;12.280;2024-01-27T07:04:14;99168.97;;;2.36
79756;BMP280;69239;50.678;12.280;2024-01-27T07:06:40;99154.25;;;2.30
79756;BMP280;69239;50.678;12.280;2024-01-27T07:09:05;99164.22;;;2.33
79756;BMP280;69239;50.678;12.280;2024-01-27T07:11:32;99173.16;;;2.37
79756;BMP280;69239;50.678;12.280;2024-01-27T07:13:57;99170.97;;;2.41
79756;BMP280;69239;50.678;12.280;2024-01-27T07:16:23;99175.13;;;2.48
79756;BMP280;69239;50.678;12.280;2024-01-27T07:18:49;99178.84;;;2.59
79756;BMP280;69239;50.678;12.280;2024-01-27T07:21:17;99179.56;;;2.66
79756;BMP280;69239;50.678;12.280;2024-01-27T07:23:43;99188.25;;;2.85
79756;BMP280;69239;50.678;12.280;2024-01-27T07:26:10;99194.84;;;3.13
79756;BMP280;69239;50.678;12.280;2024-01-27T07:28:35;99193.31;;;3.48
79756;BMP280;69239;50.678;12.280;2024-01-27T07:31:00;99188.94;;;3.79
79756;BMP280;69239;50.678;12.280;2024-01-27T07:33:26;99189.25;;;4.01
79756;BMP280;69239;50.678;12.280;2024-01-27T07:35:51;99187.09;;;4.28
79756;BMP280;69239;50.678;12.280;2024-01-27T07:38:16;99199.06;;;4.47
79756;BMP280;69239;50.678;12.280;2024-01-27T07:40:42;99209.72;;;4.87
79756;BMP280;69239;50.678;12.280;2024-01-27T07:43:07;99195.50;;;5.41
79756;BMP280;69239;50.678;12.280;2024-01-27T07:45:32;99195.00;;;5.96
79756;BMP280;69239;50.678;12.280;2024-01-27T07:47:58;99190.78;;;6.41
79756;BMP280;69239;50.678;12.280;2024-01-27T07:50:24;99185.91;;;7.00
79756;BMP280;69239;50.678;12.280;2024-01-27T07:52:49;99192.06;;;7.49
79756;BMP280;69239;50.678;12.280;2024-01-27T07:55:14;99200.00;;;8.08
79756;BMP280;69239;50.678;12.280;2024-01-27T07:57:40;99208.69;;;8.78
79756;BMP280;69239;50.678;12.280;2024-01-27T08:00:06;99194.59;;;9.46
79756;BMP280;69239;50.678;12.280;2024-01-27T08:02:32;99198.66;;;10.30
79756;BMP280;69239;50.678;12.280;2024-01-27T08:04:58;99209.28;;;11.15
79756;BMP280;69239;50.678;12.280;2024-01-27T08:07:23;99197.41;;;12.01
79756;BMP280;69239;50.678;12.280;2024-01-27T08:09:48;99213.59;;;12.81
79756;BMP280;69239;50.678;12.280;2024-01-27T08:12:14;99218.03;;;13.66
79756;BMP280;69239;50.678;12.280;2024-01-27T08:14:39;99232.78;;;14.50
79756;BMP280;69239;50.678;12.280;2024-01-27T08:17:05;99234.91;;;15.17
79756;BMP280;69239;50.678;12.280;2024-01-27T08:19:31;99234.06;;;15.88
79756;BMP280;69239;50.678;12.280;2024-01-27T08:21:56;99236.84;;;16.45
79756;BMP280;69239;50.678;12.280;2024-01-27T08:24:22;99243.31;;;17.10
79756;BMP280;69239;50.678;12.280;2024-01-27T08:26:49;99238.44;;;17.81
79756;BMP280;69239;50.678;12.280;2024-01-27T08:29:15;99237.19;;;18.25
79756;BMP280;69239;50.678;12.280;2024-01-27T08:31:40;99239.63;;;18.68
79756;BMP280;69239;50.678;12.280;2024-01-27T08:34:06;99231.59;;;19.39
79756;BMP280;69239;50.678;12.280;2024-01-27T08:36:32;99237.72;;;19.85
79756;BMP280;69239;50.678;12.280;2024-01-27T08:38:59;99245.44;;;20.35
79756;BMP280;69239;50.678;12.280;2024-01-27T08:41:24;99242.38;;;20.85
79756;BMP280;69239;50.678;12.280;2024-01-27T08:43:50;99245.91;;;21.29
79756;BMP280;69239;50.678;12.280;2024-01-27T08:46:15;99252.22;;;21.37
79756;BMP280;69239;50.678;12.280;2024-01-27T08:48:42;99244.34;;;21.87
79756;BMP280;69239;50.678;12.280;2024-01-27T08:51:09;99254.28;;;22.53
79756;BMP280;69239;50.678;12.280;2024-01-27T08:53:35;99247.16;;;23.19
79756;BMP280;69239;50.678;12.280;2024-01-27T08:56:00;99253.66;;;23.82
79756;BMP280;69239;50.678;12.280;2024-01-27T08:58:26;99248.03;;;24.17
79756;BMP280;69239;50.678;12.280;2024-01-27T09:00:52;99257.31;;;24.20
79756;BMP280;69239;50.678;12.280;2024-01-27T09:03:18;99259.03;;;24.31
79756;BMP280;69239;50.678;12.280;2024-01-27T09:05:46;99257.16;;;24.36
79756;BMP280;69239;50.678;12.280;2024-01-27T09:08:11;99262.13;;;24.33
79756;BMP280;69239;50.678;12.280;2024-01-27T09:10:36;99266.75;;;24.33
79756;BMP280;69239;50.678;12.280;2024-01-27T09:13:02;99276.56;;;24.22
79756;BMP280;69239;50.678;12.280;2024-01-27T09:15:27;99282.75;;;23.31
79756;BMP280;69239;50.678;12.280;2024-01-27T09:17:53;99287.38;;;22.76
79756;BMP280;69239;50.678;12.280;2024-01-27T09:20:19;99279.97;;;22.70
79756;BMP280;69239;50.678;12.280;2024-01-27T09:22:44;99281.66;;;22.94
79756;BMP280;69239;50.678;12.280;2024-01-27T09:25:12;99287.31;;;23.27
79756;BMP280;69239;50.678;12.280;2024-01-27T09:27:38;99273.72;;;23.43
79756;BMP280;69239;50.678;12.280;2024-01-27T09:30:04;99271.72;;;23.17
79756;BMP280;69239;50.678;12.280;2024-01-27T09:32:30;99284.03;;;23.18
79756;BMP280;69239;50.678;12.280;2024-01-27T09:34:55;99281.56;;;23.51
79756;BMP280;69239;50.678;12.280;2024-01-27T09:37:21;99284.63;;;24.18
79756;BMP280;69239;50.678;12.280;2024-01-27T09:39:46;99277.31;;;24.75
79756;BMP280;69239;50.678;12.280;2024-01-27T09:42:13;99272.53;;;25.32
79756;BMP280;69239;50.678;12.280;2024-01-27T09:44:42;99280.84;;;26.08
79756;BMP280;69239;50.678;12.280;2024-01-27T09:47:08;99287.22;;;26.40
79756;BMP280;69239;50.678;12.280;2024-01-27T09:49:35;99280.88;;;26.98
79756;BMP280;69239;50.678;12.280;2024-01-27T09:52:02;99277.44;;;27.50
79756;BMP280;69239;50.678;12.280;2024-01-27T09:54:28;99271.97;;;28.00
79756;BMP280;69239;50.678;12.280;2024-01-27T09:56:54;99285.56;;;27.79
79756;BMP280;69239;50.678;12.280;2024-01-27T09:59:20;99279.75;;;27.55
79756;BMP280;69239;50.678;12.280;2024-01-27T10:01:47;99289.03;;;27.69
79756;BMP280;69239;50.678;12.280;2024-01-27T10:04:13;99281.28;;;27.92
79756;BMP280;69239;50.678;12.280;2024-01-27T10:06:38;99294.44;;;28.04
79756;BMP280;69239;50.678;12.280;2024-01-27T10:09:05;99297.53;;;27.39
79756;BMP280;69239;50.678;12.280;2024-01-27T10:11:31;99289.03;;;27.19
79756;BMP280;69239;50.678;12.280;2024-01-27T10:13:58;99292.91;;;27.36
79756;BMP280;69239;50.678;12.280;2024-01-27T10:16:27;99286.72;;;27.85
79756;BMP280;69239;50.678;12.280;2024-01-27T10:19:00;99281.22;;;28.20
79756;BMP280;69239;50.678;12.280;2024-01-27T10:21:26;99284.25;;;28.40
79756;BMP280;69239;50.678;12.280;2024-01-27T10:23:52;99274.53;;;28.53
79756;BMP280;69239;50.678;12.280;2024-01-27T10:26:17;99274.28;;;28.05
79756;BMP280;69239;50.678;12.280;2024-01-27T10:28:43;99277.78;;;27.95
79756;BMP280;69239;50.678;12.280;2024-01-27T10:31:16;99276.47;;;28.53
79756;BMP280;69239;50.678;12.280;2024-01-27T10:33:51;99268.53;;;28.83
79756;BMP280;69239;50.678;12.280;2024-01-27T10:36:17;99282.59;;;28.60
79756;BMP280;69239;50.678;12.280;2024-01-27T10:38:42;99275.41;;;28.15
79756;BMP280;69239;50.678;12.280;2024-01-27T10:41:09;99264.97;;;28.03
79756;BMP280;69239;50.678;12.280;2024-01-27T10:43:39;99283.94;;;28.20
79756;BMP280;69239;50.678;12.280;2024-01-27T10:46:06;99285.09;;;28.19
79756;BMP280;69239;50.678;12.280;2024-01-27T10:48:34;99280.44;;;28.09
79756;BMP280;69239;50.678;12.280;2024-01-27T10:51:03;99283.91;;;28.27
79756;BMP280;69239;50.678;12.280;2024-01-27T10:53:31;99292.38;;;28.36
79756;BMP280;69239;50.678;12.280;2024-01-27T10:56:00;99291.22;;;28.30
79756;BMP280;69239;50.678;12.280;2024-01-27T10:58:27;99298.63;;;28.26
79756;BMP280;69239;50.678;12.280;2024-01-27T11:00:53;99297.31;;;28.63
79756;BMP280;69239;50.678;12.280;2024-01-27T11:03:22;99292.81;;;29.04
79756;BMP280;69239;50.678;12.280;2024-01-27T11:05:50;99285.31;;;29.67
79756;BMP280;69239;50.678;12.280;2024-01-27T11:08:18;99281.63;;;29.88
79756;BMP280;69239;50.678;12.280;2024-01-27T11:10:43;99288.34;;;30.13
79756;BMP280;69239;50.678;12.280;2024-01-27T11:13:09;99285.78;;;29.99
79756;BMP280;69239;50.678;12.280;2024-01-27T11:15:34;99305.38;;;30.18
79756;BMP280;69239;50.678;12.280;2024-01-27T11:18:00;99299.47;;;30.23
79756;BMP280;69239;50.678;12.280;2024-01-27T11:20:27;99291.66;;;29.91
79756;BMP280;69239;50.678;12.280;2024-01-27T11:22:52;99298.72;;;30.19
79756;BMP280;69239;50.678;12.280;2024-01-27T11:25:19;99279.34;;;30.77
79756;BMP280;69239;50.678;12.280;2024-01-27T11:27:46;99293.34;;;31.49
79756;BMP280;69239;50.678;12.280;2024-01-27T11:30:30;99291.59;;;31.59
79756;BMP280;69239;50.678;12.280;2024-01-27T11:32:57;99301.28;;;31.40
79756;BMP280;69239;50.678;12.280;2024-01-27T11:35:25;99309.38;;;30.70
79756;BMP280;69239;50.678;12.280;2024-01-27T11:37:51;99309.06;;;30.61
79756;BMP280;69239;50.678;12.280;2024-01-27T11:40:16;99307.50;;;29.99
79756;BMP280;69239;50.678;12.280;2024-01-27T11:42:42;99315.34;;;27.79
79756;BMP280;69239;50.678;12.280;2024-01-27T11:45:08;99316.69;;;25.57
79756;BMP280;69239;50.678;12.280;2024-01-27T11:47:34;99328.94;;;23.56
79756;BMP280;69239;50.678;12.280;2024-01-27T11:49:59;99321.84;;;21.92
79756;BMP280;69239;50.678;12.280;2024-01-27T11:52:25;99325.84;;;20.75
79756;BMP280;69239;50.678;12.280;2024-01-27T11:54:57;99334.13;;;19.67
79756;BMP280;69239;50.678;12.280;2024-01-27T11:57:23;99329.75;;;18.71
79756;BMP280;69239;50.678;12.280;2024-01-27T11:59:48;99336.84;;;18.03
79756;BMP280;69239;50.678;12.280;2024-01-27T12:02:14;99333.06;;;17.35
79756;BMP280;69239;50.678;12.280;2024-01-27T12:04:40;99331.84;;;16.76
79756;BMP280;69239;50.678;12.280;2024-01-27T12:07:06;99329.56;;;16.07
79756;BMP280;69239;50.678;12.280;2024-01-27T12:09:31;99340.34;;;15.52
79756;BMP280;69239;50.678;12.280;2024-01-27T12:11:57;99341.66;;;15.14
79756;BMP280;69239;50.678;12.280;2024-01-27T12:14:22;99351.84;;;14.79
79756;BMP280;69239;50.678;12.280;2024-01-27T12:16:47;99348.25;;;14.43
79756;BMP280;69239;50.678;12.280;2024-01-27T12:19:13;99359.84;;;14.09
79756;BMP280;69239;50.678;12.280;2024-01-27T12:21:38;99346.53;;;13.77
79756;BMP280;69239;50.678;12.280;2024-01-27T12:24:04;99343.75;;;13.44
79756;BMP280;69239;50.678;12.280;2024-01-27T12:26:30;99339.06;;;13.17
79756;BMP280;69239;50.678;12.280;2024-01-27T12:28:56;99329.69;;;13.01
79756;BMP280;69239;50.678;12.280;2024-01-27T12:31:23;99328.69;;;13.21
79756;BMP280;69239;50.678;12.280;2024-01-27T12:33:50;99320.28;;;14.32
79756;BMP280;69239;50.678;12.280;2024-01-27T12:36:20;99323.44;;;16.91
79756;BMP280;69239;50.678;12.280;2024-01-27T12:38:58;99309.16;;;19.01
79756;BMP280;69239;50.678;12.280;2024-01-27T12:41:28;99321.59;;;20.62
79756;BMP280;69239;50.678;12.280;2024-01-27T12:43:54;99314.41;;;21.42
79756;BMP280;69239;50.678;12.280;2024-01-27T12:46:19;99329.75;;;22.48
79756;BMP280;69239;50.678;12.280;2024-01-27T12:48:45;99335.63;;;23.66
79756;BMP280;69239;50.678;12.280;2024-01-27T12:51:11;99310.41;;;24.46
79756;BMP280;69239;50.678;12.280;2024-01-27T12:53:38;99310.81;;;25.11
79756;BMP280;69239;50.678;12.280;2024-01-27T12:56:07;99309.25;;;25.91
79756;BMP280;69239;50.678;12.280;2024-01-27T12:58:32;99305.81;;;26.52
79756;BMP280;69239;50.678;12.280;2024-01-27T13:00:58;99306.00;;;27.09
79756;BMP280;69239;50.678;12.280;2024-01-27T13:03:23;99300.25;;;27.49
79756;BMP280;69239;50.678;12.280;2024-01-27T13:05:48;99308.75;;;27.80
79756;BMP280;69239;50.678;12.280;2024-01-27T13:08:14;99302.13;;;28.09
79756;BMP280;69239;50.678;12.280;2024-01-27T13:10:39;99313.78;;;27.88
79756;BMP280;69239;50.678;12.280;2024-01-27T13:13:04;99317.28;;;27.64
79756;BMP280;69239;50.678;12.280;2024-01-27T13:15:30;99297.56;;;27.35
79756;BMP280;69239;50.678;12.280;2024-01-27T13:17:55;99296.41;;;27.58
79756;BMP280;69239;50.678;12.280;2024-01-27T13:20:20;99299.09;;;27.79
79756;BMP280;69239;50.678;12.280;2024-01-27T13:22:46;99292.88;;;27.96
79756;BMP280;69239;50.678;12.280;2024-01-27T13:25:11;99295.97;;;27.94
79756;BMP280;69239;50.678;12.280;2024-01-27T13:27:36;99304.50;;;27.79
79756;BMP280;69239;50.678;12.280;2024-01-27T13:30:02;99302.16;;;27.88
79756;BMP280;69239;50.678;12.280;2024-01-27T13:32:27;99306.03;;;28.01
79756;BMP280;69239;50.678;12.280;2024-01-27T13:34:53;99297.47;;;28.20
79756;BMP280;69239;50.678;12.280;2024-01-27T13:37:18;99301.34;;;28.16
79756;BMP280;69239;50.678;12.280;2024-01-27T13:39:44;99311.44;;;27.87
79756;BMP280;69239;50.678;12.280;2024-01-27T13:42:09;99307.59;;;27.67
79756;BMP280;69239;50.678;12.280;2024-01-27T13:44:35;99311.47;;;27.62
79756;BMP280;69239;50.678;12.280;2024-01-27T13:47:02;99306.06;;;27.62
79756;BMP280;69239;50.678;12.280;2024-01-27T13:49:28;99313.03;;;27.63
79756;BMP280;69239;50.678;12.280;2024-01-27T13:51:54;99314.91;;;27.31
79756;BMP280;69239;50.678;12.280;2024-01-27T13:54:19;99311.69;;;26.83
79756;BMP280;69239;50.678;12.280;2024-01-27T13:56:44;99314.50;;;26.21